createdAt,value
2023-05-01T08:02:52.611Z,100748.72
2023-05-01T08:05:42.680Z,100743.53
2023-05-01T08:08:28.420Z,100730.13
2023-05-01T08:11:14.429Z,100745.06
2023-05-01T08:14:00.150Z,100727.19
2023-05-01T08:16:46.528Z,100729.72
2023-05-01T08:19:33.949Z,100739.81
2023-05-01T08:22:20.699Z,100731.03
2023-05-01T08:25:07.197Z,100738.25
2023-05-01T08:27:53.138Z,100740.25
2023-05-01T08:30:38.711Z,100734.03
2023-05-01T08:33:24.968Z,100732.19
2023-05-01T08:36:11.592Z,100735.31
2023-05-01T08:38:57.486Z,100735.13
2023-05-01T08:41:47.029Z,100712.13
2023-05-01T08:44:32.927Z,100720.25
2023-05-01T08:47:19.215Z,100722.91
2023-05-01T08:50:10.118Z,100715.06
2023-05-01T08:52:56.561Z,100720.06
2023-05-01T08:55:45.995Z,100716.81
2023-05-01T08:58:34.473Z,100708.28
2023-05-01T09:01:20.882Z,100705.16
2023-05-01T09:04:07.595Z,100710.25
2023-05-01T09:06:55.182Z,100706.31
2023-05-01T09:09:41.072Z,100698.69
2023-05-01T09:12:27.951Z,100700.31
2023-05-01T09:15:14.427Z,100667.28
2023-05-01T09:18:03.554Z,100702.63
2023-05-01T09:20:50.013Z,100678.44
2023-05-01T09:23:37.707Z,100688.72
2023-05-01T09:26:23.844Z,100688.25
2023-05-01T09:29:10.363Z,100693.50
2023-05-01T09:32:13.409Z,100683.69
2023-05-01T09:35:14.352Z,100680.63
2023-05-01T09:38:00.533Z,100683.44
2023-05-01T09:40:47.280Z,100678.38
2023-05-01T09:43:32.991Z,100678.97
2023-05-01T09:46:20.164Z,100667.31
2023-05-01T09:49:06.475Z,100676.66
2023-05-01T09:51:52.964Z,100675.16
2023-05-01T09:54:39.384Z,100671.25
2023-05-01T09:57:36.264Z,100671.03
2023-05-01T10:00:22.539Z,100662.81
2023-05-01T10:03:15.343Z,100653.59
2023-05-01T10:06:03.087Z,100660.41
2023-05-01T10:08:50.829Z,100658.88
2023-05-01T10:11:52.598Z,100656.09
2023-05-01T10:14:56.169Z,100658.19
2023-05-01T10:17:43.345Z,100645.50
2023-05-01T10:20:29.838Z,100634.06
2023-05-01T10:23:16.478Z,100627.38
2023-05-01T10:26:05.278Z,100632.91
2023-05-01T10:28:52.898Z,100626.69
2023-05-01T10:31:40.813Z,100624.94
2023-05-01T10:34:28.824Z,100622.28
2023-05-01T10:37:23.444Z,100622.97
2023-05-01T10:40:41.066Z,100627.22
2023-05-01T10:43:28.970Z,100605.94
2023-05-01T10:46:19.504Z,100615.06
2023-05-01T10:49:06.057Z,100615.81
2023-05-01T10:52:04.129Z,100600.38
2023-05-01T10:54:50.860Z,100585.25
2023-05-01T10:57:46.519Z,100589.56
2023-05-01T11:00:34.388Z,100592.34
2023-05-01T11:03:23.826Z,100579.09
2023-05-01T11:06:10.891Z,100592.75
2023-05-01T11:08:57.535Z,100575.88
2023-05-01T11:11:43.762Z,100582.94
2023-05-01T11:15:02.604Z,100582.94
2023-05-01T11:17:51.169Z,100586.03
2023-05-01T11:20:37.079Z,100573.56
2023-05-01T11:23:23.586Z,100553.94
2023-05-01T11:26:09.993Z,100568.25
2023-05-01T11:28:58.997Z,100548.63
2023-05-01T11:31:48.790Z,100558.88
2023-05-01T11:34:36.233Z,100552.00
2023-05-01T11:37:45.308Z,100548.44
2023-05-01T11:40:34.502Z,100553.47
2023-05-01T11:43:20.559Z,100540.34
2023-05-01T11:46:06.867Z,100535.16
2023-05-01T11:48:56.420Z,100534.44
2023-05-01T11:51:42.712Z,100533.88
2023-05-01T11:54:28.767Z,100539.03
2023-05-01T11:57:15.058Z,100530.47
2023-05-01T12:00:00.986Z,100520.56
2023-05-01T12:03:12.012Z,100516.06
2023-05-01T12:05:58.448Z,100503.63
2023-05-01T12:08:50.495Z,100482.38
2023-05-01T12:11:36.954Z,100514.47
2023-05-01T12:14:24.626Z,100502.81
2023-05-01T12:17:12.322Z,100508.47
2023-05-01T12:19:58.992Z,100463.03
2023-05-01T12:22:51.132Z,100444.09
2023-05-01T12:25:39.576Z,100451.03
2023-05-01T12:28:27.976Z,100496.22
2023-05-01T12:31:15.611Z,100484.59
2023-05-01T12:34:05.458Z,100469.13
2023-05-01T12:36:55.163Z,100452.88
2023-05-01T12:39:43.006Z,100475.94
2023-05-01T12:42:29.551Z,100473.88
2023-05-01T12:45:15.855Z,100469.47
2023-05-01T12:48:02.661Z,100450.09
2023-05-01T12:50:54.854Z,100369.78
2023-05-01T12:53:44.171Z,100437.66
2023-05-01T12:56:30.114Z,100430.53
2023-05-01T12:59:24.431Z,100418.66
2023-05-01T13:02:12.868Z,100356.06
2023-05-01T13:05:10.458Z,100414.38
2023-05-01T13:07:57.170Z,100414.16
2023-05-01T13:10:44.147Z,100402.97
2023-05-01T13:13:31.984Z,100409.06
2023-05-01T13:16:18.128Z,100383.63
2023-05-01T13:19:06.199Z,100397.22
2023-05-01T13:21:52.814Z,100379.31
2023-05-01T13:24:42.706Z,100366.53
2023-05-01T13:27:31.368Z,100378.06
2023-05-01T13:30:21.880Z,100377.34
2023-05-01T13:33:11.262Z,100368.03
2023-05-01T13:35:57.496Z,100358.34
2023-05-01T13:38:47.282Z,100366.78
2023-05-01T13:41:35.194Z,100374.34
2023-05-01T13:44:22.622Z,100343.34
2023-05-01T13:47:08.473Z,100369.63
2023-05-01T13:49:55.092Z,100358.09
2023-05-01T13:52:43.755Z,100350.47
2023-05-01T13:55:30.058Z,100349.41
2023-05-01T13:58:16.464Z,100351.13
2023-05-01T14:01:23.702Z,100331.22
2023-05-01T14:04:16.119Z,100331.09
2023-05-01T14:07:04.623Z,100344.25
2023-05-01T14:09:56.443Z,100316.81
2023-05-01T14:12:42.967Z,100341.34
2023-05-01T14:15:29.693Z,100326.97
2023-05-01T14:18:18.572Z,100324.19
2023-05-01T14:21:08.050Z,100298.50
2023-05-01T14:23:55.709Z,100313.66
2023-05-01T14:26:43.725Z,100287.88
2023-05-01T14:29:30.664Z,100315.41
2023-05-01T14:32:19.624Z,100290.06
2023-05-01T14:35:09.390Z,100272.53
2023-05-01T14:38:06.720Z,100289.56
2023-05-01T14:40:52.935Z,100288.75
2023-05-01T14:43:41.384Z,100298.41
2023-05-01T14:46:33.733Z,100281.53
2023-05-01T14:49:27.035Z,100276.97
2023-05-01T14:52:20.373Z,100276.88
2023-05-01T14:55:06.886Z,100277.38
2023-05-01T14:57:53.480Z,100281.41
2023-05-01T15:00:39.518Z,100274.13
2023-05-01T15:03:26.329Z,100279.41
2023-05-01T15:06:12.451Z,100265.16
2023-05-01T15:08:59.556Z,100262.84
2023-05-01T15:11:46.054Z,100270.69
2023-05-01T15:14:32.411Z,100275.06
2023-05-01T15:17:18.740Z,100260.22
2023-05-01T15:20:06.415Z,100257.53
2023-05-01T15:22:54.173Z,100246.00
2023-05-01T15:25:44.380Z,100243.69
2023-05-01T15:28:30.741Z,100251.78
2023-05-01T15:31:19.321Z,100241.63
2023-05-01T15:34:05.512Z,100231.38
2023-05-01T15:36:58.505Z,100237.03
2023-05-01T15:39:47.326Z,100236.78
2023-05-01T15:42:34.858Z,100219.50
2023-05-01T15:45:21.328Z,100225.00
2023-05-01T15:48:07.815Z,100223.03
2023-05-01T15:50:54.690Z,100220.97
2023-05-01T15:53:41.452Z,100212.47
2023-05-01T15:56:27.721Z,100203.72
2023-05-01T15:59:14.582Z,100172.66
2023-05-01T16:02:01.155Z,100200.03
2023-05-01T16:04:48.367Z,100202.59
2023-05-01T16:07:35.087Z,100197.06
2023-05-01T16:10:22.946Z,100200.16
2023-05-01T16:13:09.387Z,100172.59
2023-05-01T16:15:55.321Z,100196.28
2023-05-01T16:18:45.088Z,100170.88
2023-05-01T16:21:31.702Z,100136.03
2023-05-01T16:24:17.634Z,100170.97
2023-05-01T16:27:04.298Z,100163.03
2023-05-01T16:29:50.329Z,100180.41
2023-05-01T16:32:36.926Z,100164.63
2023-05-01T16:35:27.589Z,100157.50
2023-05-01T16:38:14.297Z,100181.75
2023-05-01T16:41:00.442Z,100172.56
2023-05-01T16:43:47.263Z,100170.50
2023-05-01T16:46:33.688Z,100178.53
2023-05-01T16:49:21.049Z,100179.25
2023-05-01T16:52:06.945Z,100147.59
2023-05-01T16:54:54.507Z,100163.94
2023-05-01T16:57:42.426Z,100158.31
2023-05-01T17:00:31.409Z,100154.63
2023-05-01T17:03:17.418Z,100156.50
2023-05-01T17:06:04.589Z,100154.97
2023-05-01T17:08:53.785Z,100150.31
2023-05-01T17:11:40.245Z,100162.16
2023-05-01T17:14:29.072Z,100157.56
2023-05-01T17:17:21.879Z,100159.78
2023-05-01T17:20:11.918Z,100158.25
2023-05-01T17:22:59.106Z,100152.50
2023-05-01T17:25:45.472Z,100160.69
2023-05-01T17:28:34.335Z,100158.06
2023-05-01T17:31:22.383Z,100154.94
2023-05-01T17:34:09.346Z,100151.50
2023-05-01T17:36:57.808Z,100129.16
2023-05-01T17:39:44.433Z,100151.13
2023-05-01T17:42:30.525Z,100146.53
2023-05-01T17:45:17.562Z,100137.41
2023-05-01T17:48:03.893Z,100155.13
2023-05-01T17:50:56.008Z,100135.31
2023-05-01T17:53:44.927Z,100118.81
2023-05-01T17:56:31.615Z,100138.75
2023-05-01T17:59:20.593Z,100124.06
2023-05-01T18:02:08.643Z,100154.59
2023-05-01T18:04:55.499Z,100148.19
2023-05-01T18:07:41.633Z,100149.06
2023-05-01T18:10:31.304Z,100145.28
2023-05-01T18:13:17.650Z,100096.88
2023-05-01T18:16:04.849Z,100137.28
2023-05-01T18:18:51.099Z,100144.72
2023-05-01T18:21:36.769Z,100142.06
2023-05-01T18:24:22.873Z,100119.84
2023-05-01T18:27:12.887Z,100063.25
2023-05-01T18:30:05.285Z,100140.84
2023-05-01T18:32:51.041Z,100139.75
2023-05-01T18:35:42.333Z,100147.09
2023-05-01T18:38:28.672Z,100126.31
2023-05-01T18:41:15.956Z,100153.78
2023-05-01T18:44:02.567Z,100140.75
2023-05-01T18:46:49.367Z,100149.03
2023-05-01T18:49:35.854Z,100149.53
2023-05-01T18:52:23.750Z,100142.25
2023-05-01T18:55:11.537Z,100142.63
2023-05-01T18:57:57.816Z,100141.22
2023-05-01T19:00:44.148Z,100139.44
2023-05-01T19:03:31.696Z,100143.19
2023-05-01T19:06:18.652Z,100132.38
2023-05-01T19:09:05.441Z,100136.44
2023-05-01T19:11:51.925Z,100129.19
2023-05-01T19:14:38.580Z,100133.09
2023-05-01T19:17:24.953Z,100132.94
2023-05-01T19:20:11.372Z,100125.19
2023-05-01T19:22:57.825Z,100131.00
2023-05-01T19:25:44.422Z,100114.56
2023-05-01T19:28:30.660Z,100125.69
2023-05-01T19:31:20.969Z,100113.41
2023-05-01T19:34:06.734Z,100095.34
2023-05-01T19:37:00.314Z,100107.59
2023-05-01T19:39:46.463Z,100120.22
2023-05-01T19:42:33.404Z,100112.31
2023-05-01T19:45:19.178Z,100112.63
2023-05-01T19:48:08.979Z,100112.78
2023-05-01T19:50:55.266Z,100102.97
2023-05-01T19:53:42.295Z,100118.47
2023-05-01T19:56:31.451Z,100096.50
2023-05-01T19:59:19.087Z,100108.59
2023-05-01T20:02:06.070Z,100107.16
2023-05-01T20:04:53.214Z,100061.78
2023-05-01T20:07:39.478Z,100101.53
2023-05-01T20:10:26.936Z,100089.72
2023-05-01T20:13:12.730Z,100096.81
2023-05-01T20:16:00.119Z,100093.59
2023-05-01T20:18:46.498Z,100073.25
2023-05-01T20:21:32.965Z,100100.22
2023-05-01T20:24:20.688Z,100084.56
2023-05-01T20:27:07.721Z,100088.44
2023-05-01T20:29:53.999Z,100054.50
2023-05-01T20:32:44.098Z,100079.22
2023-05-01T20:35:33.770Z,100058.22
2023-05-01T20:38:21.689Z,100071.13
2023-05-01T20:41:07.689Z,100076.97
2023-05-01T20:43:54.107Z,100066.44
2023-05-01T20:46:40.321Z,100086.66
2023-05-01T20:49:28.460Z,100060.00
2023-05-01T20:52:14.357Z,100072.44
2023-05-01T20:55:00.792Z,100063.69
2023-05-01T20:57:47.115Z,100077.13
2023-05-01T21:00:35.773Z,100067.28
2023-05-01T21:03:21.945Z,100087.81
2023-05-01T21:06:08.540Z,100061.34
2023-05-01T21:08:57.071Z,100081.69
2023-05-01T21:11:43.596Z,100072.94
2023-05-01T21:14:29.459Z,100067.78
2023-05-01T21:17:16.187Z,100069.25
2023-05-01T21:20:06.437Z,100050.16
2023-05-01T21:22:52.746Z,100030.44
2023-05-01T21:25:38.461Z,100057.28
2023-05-01T21:28:25.072Z,100075.38
2023-05-01T21:31:14.800Z,100079.13
2023-05-01T21:34:04.444Z,100049.66
2023-05-01T21:36:50.556Z,100068.59
2023-05-01T21:39:36.971Z,100074.22
2023-05-01T21:42:23.150Z,100073.09
2023-05-01T21:45:13.092Z,100066.94
2023-05-01T21:48:00.304Z,100071.00
2023-05-01T21:50:50.224Z,100063.56
2023-05-01T21:53:36.148Z,100061.81
2023-05-01T21:56:23.515Z,100062.28
2023-05-01T21:59:09.049Z,100069.88
2023-05-01T22:01:55.789Z,100062.91
2023-05-01T22:04:42.396Z,100043.84
2023-05-01T22:07:28.579Z,100064.22
2023-05-01T22:10:17.282Z,100063.25
2023-05-01T22:13:06.549Z,100051.44
2023-05-01T22:15:54.775Z,100057.91
2023-05-01T22:18:41.356Z,100042.72
2023-05-01T22:21:27.817Z,100054.50
2023-05-01T22:24:14.145Z,100039.50
2023-05-01T22:27:00.704Z,100048.19
2023-05-01T22:29:47.435Z,100046.09
2023-05-01T22:32:33.445Z,100052.59
2023-05-01T22:35:22.463Z,100022.38
2023-05-01T22:38:13.927Z,100046.94
2023-05-01T22:41:00.450Z,100044.53
2023-05-01T22:43:46.704Z,100024.47
2023-05-01T22:46:33.129Z,100044.50
2023-05-01T22:49:19.552Z,100026.56
2023-05-01T22:52:05.721Z,100044.03
2023-05-01T22:54:52.679Z,100033.19
2023-05-01T22:57:39.315Z,100037.22
2023-05-01T23:00:26.688Z,99990.69
2023-05-01T23:03:15.775Z,100037.63
2023-05-01T23:06:01.978Z,100026.81
2023-05-01T23:08:53.581Z,100023.13
2023-05-01T23:11:48.218Z,100034.22
2023-05-01T23:14:37.042Z,100029.88
2023-05-01T23:17:23.794Z,100022.88
2023-05-01T23:20:13.298Z,100012.06
2023-05-01T23:22:59.549Z,100013.47
2023-05-01T23:25:50.844Z,100015.56
2023-05-01T23:28:40.062Z,100010.97
2023-05-01T23:31:27.173Z,100016.13
2023-05-01T23:34:17.626Z,100018.75
2023-05-01T23:37:05.085Z,100007.91
2023-05-01T23:39:53.671Z,100014.38
2023-05-01T23:42:40.203Z,99956.78
2023-05-01T23:45:26.796Z,100000.66
2023-05-01T23:48:13.505Z,100003.88
2023-05-01T23:50:59.350Z,100002.72
2023-05-01T23:53:45.312Z,100010.78
2023-05-01T23:56:31.228Z,99990.75
2023-05-01T23:59:18.935Z,100002.16
